hwlogo.jpg (8581 bytes)
Home Your Weather Products Services Weather On Your Site Contact
HW Version Logo
Weather Info
Your Weather (Options)
Canadian Weather
International Weather
Enter your " Place, State", US Zip Code or ICAO:  
Forecast Information Radar Information
Watson Lake, Yukon Territory, Canada  Lat: 60.10N, Lon: 128.8W
ICAO Used: CYQH
Current Conditions
Updated: 7:00 AM PST TUE FEB 20 2018
Sun & Moon Information
Mostly Clear
Mostly Clear
Temp: -29°C
Humidity: 75%
Wind Speed: SSE 2 MPH
Barometer: 1023 mb
Dewpoint: -32°C
Heat Index: -29°C
Wind Chill: -32°C
Civil Twilight: 7:17 AM PST Moon Phase:
Waxing Crescent Moon
Sunrise: 8:01 AM PST
Sunset: 5:36 PM PST
Civil Twilight: 6:20 PM PST
Forecast for Watson Lake, YK:
(Forecast based on TAF for )
0442 AM PST TUE FEB 20 2018
  
MORNING AFTERNOON EVENING OVERNIGHT
Clear Partly
Cloudy
Partly
Cloudy
Partly
Cloudy
ZoneCast:
Dated: 0442 AM PST TUE FEB 20 2018
Morning...Clear winds variable in direction at 3 mph.

Afternoon...Clear winds variable in direction at 3 mph. Turning partly cloudy winds variable in direction at 3 mph.

Evening...Partly cloudy winds variable in direction at 3 mph.

Overnight...Partly cloudy winds variable in direction at 3 mph.

Original Encoded TAF:
Dated: 0442 AM PST TUE FEB 20 2018
2018/02/20 12:42
TAF CYQH 201138Z 2012/2024 VRB03KT P6SM SKC 
     FM202000 VRB03KT P6SM SCT080 
      TEMPO 2020/2024 6SM -SN BKN060 
      RMK NXT FCST BY 201800Z